createdAt,value
2023-04-27T00:00:27.523Z,100.00
2023-04-27T00:02:56.255Z,100.00
2023-04-27T00:05:25.233Z,100.00
2023-04-27T00:07:53.637Z,100.00
2023-04-27T00:10:23.487Z,100.00
2023-04-27T00:12:51.826Z,100.00
2023-04-27T00:15:20.156Z,100.00
2023-04-27T00:17:48.584Z,100.00
2023-04-27T00:20:17.142Z,100.00
2023-04-27T00:22:45.803Z,100.00
2023-04-27T00:25:14.312Z,100.00
2023-04-27T00:27:44.128Z,100.00
2023-04-27T00:30:12.952Z,100.00
2023-04-27T00:32:42.459Z,100.00
2023-04-27T00:35:11.631Z,100.00
2023-04-27T00:37:39.872Z,100.00
2023-04-27T00:40:09.352Z,100.00
2023-04-27T00:42:38.024Z,100.00
2023-04-27T00:45:09.136Z,100.00
2023-04-27T00:47:38.245Z,100.00
2023-04-27T00:50:08.778Z,100.00
2023-04-27T00:52:37.967Z,100.00
2023-04-27T00:55:07.454Z,100.00
2023-04-27T00:57:35.914Z,100.00
2023-04-27T01:00:08.258Z,100.00
2023-04-27T01:02:37.303Z,100.00
2023-04-27T01:05:07.354Z,100.00
2023-04-27T01:07:38.733Z,100.00
2023-04-27T01:10:08.429Z,100.00
2023-04-27T01:12:37.308Z,100.00
2023-04-27T01:15:10.231Z,100.00
2023-04-27T01:17:38.709Z,100.00
2023-04-27T01:20:09.772Z,100.00
2023-04-27T01:22:38.398Z,100.00
2023-04-27T01:25:09.229Z,100.00
2023-04-27T01:27:37.535Z,100.00
2023-04-27T01:30:06.948Z,100.00
2023-04-27T01:32:35.323Z,100.00
2023-04-27T01:35:03.604Z,100.00
2023-04-27T01:37:32.712Z,100.00
2023-04-27T01:40:01.102Z,100.00
2023-04-27T01:42:31.689Z,100.00
2023-04-27T01:45:00.761Z,100.00
2023-04-27T01:47:29.241Z,100.00
2023-04-27T01:49:57.657Z,100.00
2023-04-27T01:52:26.188Z,100.00
2023-04-27T01:54:54.363Z,100.00
2023-04-27T01:57:23.875Z,100.00
2023-04-27T01:59:53.698Z,100.00
2023-04-27T02:02:23.554Z,100.00
2023-04-27T02:04:52.169Z,100.00
2023-04-27T02:07:20.879Z,100.00
2023-04-27T02:09:49.157Z,100.00
2023-04-27T02:12:17.486Z,100.00
2023-04-27T02:14:45.758Z,100.00
2023-04-27T02:17:15.378Z,100.00
2023-04-27T02:19:43.651Z,100.00
2023-04-27T02:22:12.607Z,100.00
2023-04-27T02:24:41.241Z,100.00
2023-04-27T02:27:09.526Z,100.00
2023-04-27T02:29:39.371Z,100.00
2023-04-27T02:32:08.245Z,100.00
2023-04-27T02:34:37.956Z,100.00
2023-04-27T02:37:06.206Z,100.00
2023-04-27T02:39:35.058Z,100.00
2023-04-27T02:42:04.224Z,100.00
2023-04-27T02:44:32.516Z,100.00
2023-04-27T02:47:01.311Z,100.00
2023-04-27T02:49:29.656Z,100.00
2023-04-27T02:51:59.508Z,100.00
2023-04-27T02:54:27.838Z,100.00
2023-04-27T02:56:56.239Z,100.00
2023-04-27T02:59:24.486Z,100.00
2023-04-27T03:01:52.904Z,100.00
2023-04-27T03:04:21.261Z,100.00
2023-04-27T03:06:50.134Z,100.00
2023-04-27T03:09:19.961Z,100.00
2023-04-27T03:11:48.196Z,100.00
2023-04-27T03:14:16.384Z,100.00
2023-04-27T03:16:44.750Z,100.00
2023-04-27T03:19:15.193Z,100.00
2023-04-27T03:21:43.616Z,100.00
2023-04-27T03:24:11.873Z,100.00
2023-04-27T03:26:41.641Z,100.00
2023-04-27T03:29:10.144Z,100.00
2023-04-27T03:31:38.580Z,100.00
2023-04-27T03:34:06.897Z,100.00
2023-04-27T03:36:35.335Z,100.00
2023-04-27T03:39:03.993Z,100.00
2023-04-27T03:41:32.370Z,100.00
2023-04-27T03:44:01.973Z,100.00
2023-04-27T03:46:30.570Z,100.00
2023-04-27T03:48:58.896Z,100.00
2023-04-27T03:51:27.860Z,100.00
2023-04-27T03:53:56.236Z,100.00
2023-04-27T03:56:24.909Z,100.00
2023-04-27T03:58:53.406Z,100.00
2023-04-27T04:01:25.028Z,100.00
2023-04-27T04:03:53.320Z,100.00
2023-04-27T04:06:21.756Z,100.00
2023-04-27T04:08:50.122Z,100.00
2023-04-27T04:11:18.631Z,100.00
2023-04-27T04:13:47.497Z,100.00
2023-04-27T04:16:16.206Z,100.00
2023-04-27T04:18:46.534Z,100.00
2023-04-27T04:21:14.787Z,100.00
2023-04-27T04:23:43.967Z,100.00
2023-04-27T04:26:13.784Z,100.00
2023-04-27T04:28:42.355Z,100.00
2023-04-27T04:31:10.920Z,100.00
2023-04-27T04:33:39.321Z,100.00
2023-04-27T04:36:11.134Z,100.00
2023-04-27T04:38:40.167Z,100.00
2023-04-27T04:41:08.805Z,100.00
2023-04-27T04:43:38.819Z,100.00
2023-04-27T04:46:08.584Z,100.00
2023-04-27T04:48:37.188Z,100.00
2023-04-27T04:51:07.006Z,100.00
2023-04-27T04:53:38.273Z,100.00
2023-04-27T04:56:11.259Z,100.00
2023-04-27T04:58:40.099Z,100.00
2023-04-27T05:01:08.680Z,100.00
2023-04-27T05:03:37.551Z,100.00
2023-04-27T05:06:06.602Z,100.00
2023-04-27T05:08:35.166Z,100.00
2023-04-27T05:11:05.254Z,100.00
2023-04-27T05:13:33.699Z,100.00
2023-04-27T05:16:06.510Z,100.00
2023-04-27T05:18:35.376Z,100.00
2023-04-27T05:21:04.110Z,100.00
2023-04-27T05:23:32.615Z,100.00
2023-04-27T05:26:01.128Z,100.00
2023-04-27T05:28:31.484Z,100.00
2023-04-27T05:31:00.124Z,100.00
2023-04-27T05:33:28.588Z,100.00
2023-04-27T05:35:56.879Z,100.00
2023-04-27T05:38:25.631Z,100.00
2023-04-27T05:40:56.780Z,100.00
2023-04-27T05:43:25.434Z,100.00
2023-04-27T05:45:55.362Z,99.11
2023-04-27T05:48:23.865Z,98.85
2023-04-27T05:51:04.233Z,96.27
2023-04-27T05:53:34.419Z,95.95
2023-04-27T05:56:11.852Z,94.38
2023-04-27T05:58:40.505Z,91.63
2023-04-27T06:01:10.790Z,88.31
2023-04-27T06:03:39.869Z,87.80
2023-04-27T06:06:08.939Z,84.48
2023-04-27T06:08:39.636Z,85.80
2023-04-27T06:11:08.146Z,85.71
2023-04-27T06:13:36.974Z,82.44
2023-04-27T06:16:13.350Z,80.88
2023-04-27T06:18:43.394Z,81.88
2023-04-27T06:21:11.803Z,80.37
2023-04-27T06:23:40.077Z,77.67
2023-04-27T06:26:08.623Z,79.31
2023-04-27T06:28:37.077Z,74.66
2023-04-27T06:31:06.484Z,74.04
2023-04-27T06:33:35.310Z,70.80
2023-04-27T06:36:05.765Z,68.09
2023-04-27T06:38:35.293Z,67.09
2023-04-27T06:41:03.615Z,68.82
2023-04-27T06:43:32.300Z,66.79
2023-04-27T06:46:00.864Z,66.26
2023-04-27T06:48:29.315Z,63.96
2023-04-27T06:50:57.808Z,63.85
2023-04-27T06:53:27.802Z,63.65
2023-04-27T06:55:57.074Z,62.30
2023-04-27T06:58:25.709Z,62.44
2023-04-27T07:00:54.939Z,58.93
2023-04-27T07:03:23.722Z,56.43
2023-04-27T07:05:53.128Z,57.72
2023-04-27T07:08:21.821Z,56.20
2023-04-27T07:10:51.920Z,56.19
2023-04-27T07:13:20.450Z,54.51
2023-04-27T07:15:48.777Z,53.98
2023-04-27T07:18:17.518Z,54.75
2023-04-27T07:20:46.193Z,50.07
2023-04-27T07:23:14.845Z,49.91
2023-04-27T07:25:43.720Z,50.51
2023-04-27T07:28:14.018Z,52.13
2023-04-27T07:30:42.972Z,47.52
2023-04-27T07:33:11.900Z,49.13
2023-04-27T07:35:40.625Z,49.75
2023-04-27T07:38:09.146Z,49.61
2023-04-27T07:40:37.912Z,46.00
2023-04-27T07:43:06.973Z,42.73
2023-04-27T07:45:39.174Z,40.19
2023-04-27T07:48:08.107Z,37.71
2023-04-27T07:50:36.952Z,34.65
2023-04-27T07:53:05.799Z,33.06
2023-04-27T07:55:34.308Z,31.15
2023-04-27T07:58:03.690Z,33.11
2023-04-27T08:00:32.304Z,30.80
2023-04-27T08:03:02.737Z,31.51
2023-04-27T08:05:32.029Z,30.92
2023-04-27T08:08:01.809Z,30.80
2023-04-27T08:10:30.417Z,31.32
2023-04-27T08:12:58.880Z,30.22
2023-04-27T08:15:27.838Z,30.35
2023-04-27T08:17:56.520Z,30.55
2023-04-27T08:20:26.409Z,27.21
2023-04-27T08:22:55.381Z,27.27
2023-04-27T08:25:24.328Z,25.99
2023-04-27T08:28:07.839Z,24.46
2023-04-27T08:31:22.874Z,27.55
2023-04-27T08:34:53.821Z,27.14
2023-04-27T08:38:44.065Z,27.99
2023-04-27T08:41:33.123Z,26.04
2023-04-27T08:44:01.814Z,26.97
2023-04-27T08:46:31.727Z,29.67
2023-04-27T08:49:01.496Z,31.12
2023-04-27T08:51:30.482Z,27.76
2023-04-27T08:54:00.510Z,29.75
2023-04-27T08:56:30.548Z,31.62
2023-04-27T08:58:59.908Z,30.88
2023-04-27T09:01:28.911Z,30.82
2023-04-27T09:03:59.071Z,25.93
2023-04-27T09:06:32.000Z,25.81
2023-04-27T09:09:02.943Z,25.06
2023-04-27T09:11:34.054Z,26.47
2023-04-27T09:14:03.908Z,25.42
2023-04-27T09:16:33.196Z,23.15
2023-04-27T09:19:01.858Z,22.45
2023-04-27T09:21:31.482Z,22.07
2023-04-27T09:24:10.988Z,22.49
2023-04-27T09:26:40.217Z,25.89
2023-04-27T09:29:09.352Z,27.14
2023-04-27T09:31:38.464Z,24.77
2023-04-27T09:34:07.197Z,23.66
2023-04-27T09:36:36.246Z,23.54
2023-04-27T09:39:06.354Z,23.26
2023-04-27T09:41:35.930Z,27.46
2023-04-27T09:44:05.421Z,26.42
2023-04-27T09:46:35.312Z,25.50
2023-04-27T09:49:06.567Z,25.11
2023-04-27T09:51:35.790Z,23.89
2023-04-27T09:54:06.965Z,27.41
2023-04-27T09:56:48.868Z,29.70
2023-04-27T09:59:37.907Z,28.84
2023-04-27T10:02:23.645Z,30.78
2023-04-27T10:05:16.974Z,31.91
2023-04-27T10:07:47.789Z,31.42
2023-04-27T10:10:21.157Z,29.12
2023-04-27T10:13:00.220Z,24.08
2023-04-27T10:15:29.911Z,25.61
2023-04-27T10:18:05.569Z,23.61
2023-04-27T10:20:37.555Z,26.68
2023-04-27T10:23:06.606Z,27.97
2023-04-27T10:25:42.153Z,26.30
2023-04-27T10:28:17.740Z,23.23
2023-04-27T10:30:49.281Z,24.93
2023-04-27T10:33:19.805Z,25.97
2023-04-27T10:35:56.872Z,24.18
2023-04-27T10:38:30.418Z,26.63
2023-04-27T10:41:02.484Z,26.90
2023-04-27T10:43:32.451Z,25.37
2023-04-27T10:46:11.868Z,27.75
2023-04-27T10:48:40.840Z,31.64
2023-04-27T10:51:09.242Z,32.41
2023-04-27T10:53:38.139Z,36.93
2023-04-27T10:56:08.691Z,29.75
2023-04-27T11:01:10.501Z,28.47
2023-04-27T11:03:39.486Z,28.82
2023-04-27T11:06:08.780Z,26.07
2023-04-27T11:08:45.772Z,28.70
2023-04-27T11:11:18.358Z,26.18
2023-04-27T11:13:49.427Z,28.80
2023-04-27T11:16:19.657Z,28.08
2023-04-27T11:18:48.113Z,30.47
2023-04-27T11:21:18.168Z,28.24
2023-04-27T11:23:46.909Z,29.01
2023-04-27T11:26:18.979Z,33.28
2023-04-27T11:29:00.273Z,35.06
2023-04-27T11:31:29.278Z,33.13
2023-04-27T11:33:57.799Z,35.70
2023-04-27T11:36:27.424Z,37.42
2023-04-27T11:39:00.475Z,35.91
2023-04-27T11:41:36.924Z,35.31
2023-04-27T11:44:07.705Z,34.97
2023-04-27T11:46:38.187Z,35.79
2023-04-27T11:49:09.025Z,36.87
2023-04-27T11:51:37.790Z,37.05
2023-04-27T11:54:07.440Z,39.03
2023-04-27T11:56:38.312Z,39.73
2023-04-27T11:59:07.075Z,40.11
2023-04-27T12:01:38.414Z,40.49
2023-04-27T12:04:07.266Z,41.63
2023-04-27T12:06:35.969Z,40.45
2023-04-27T12:09:05.404Z,42.00
2023-04-27T12:11:34.368Z,41.43
2023-04-27T12:14:04.627Z,41.73
2023-04-27T12:16:33.045Z,42.02
2023-04-27T12:19:01.717Z,43.41
2023-04-27T12:21:30.361Z,43.98
2023-04-27T12:23:58.684Z,41.13
2023-04-27T12:26:27.145Z,42.81
2023-04-27T12:28:56.226Z,39.21
2023-04-27T12:31:27.808Z,37.64
2023-04-27T12:33:57.828Z,40.44
2023-04-27T12:36:27.350Z,37.74
2023-04-27T12:39:00.190Z,37.61
2023-04-27T12:41:29.390Z,37.58
2023-04-27T12:43:57.854Z,38.77
2023-04-27T12:46:27.634Z,38.21
2023-04-27T12:48:57.364Z,36.52
2023-04-27T12:51:25.891Z,38.20
2023-04-27T12:53:54.289Z,38.24
2023-04-27T12:56:22.738Z,37.13
2023-04-27T12:58:51.074Z,35.10
2023-04-27T13:01:19.904Z,35.24
2023-04-27T13:03:49.932Z,32.11
2023-04-27T13:06:18.318Z,32.15
2023-04-27T13:08:46.819Z,34.82
2023-04-27T13:11:15.354Z,38.16
2023-04-27T13:13:44.319Z,37.30
2023-04-27T13:16:13.132Z,40.00
2023-04-27T13:18:46.583Z,39.73
2023-04-27T13:21:17.799Z,40.83
2023-04-27T13:23:47.161Z,38.96
2023-04-27T13:26:15.908Z,38.98
2023-04-27T13:28:44.574Z,41.20
2023-04-27T13:31:13.049Z,38.53
2023-04-27T13:33:43.372Z,36.21
2023-04-27T13:36:12.916Z,36.61
2023-04-27T13:38:42.781Z,36.64
2023-04-27T13:41:11.276Z,37.66
2023-04-27T13:43:39.639Z,39.79
2023-04-27T13:46:08.135Z,37.21
2023-04-27T13:48:36.617Z,35.88
2023-04-27T13:51:05.568Z,39.78
2023-04-27T13:53:33.983Z,39.58
2023-04-27T13:56:04.007Z,37.83
2023-04-27T13:58:33.743Z,38.12
2023-04-27T14:01:02.291Z,36.04
2023-04-27T14:03:30.936Z,37.05
2023-04-27T14:05:59.468Z,40.57
2023-04-27T14:08:27.776Z,41.73
2023-04-27T14:10:56.955Z,39.39
2023-04-27T14:13:27.064Z,39.36
2023-04-27T14:15:55.526Z,40.41
2023-04-27T14:18:29.784Z,40.35
2023-04-27T14:21:01.169Z,40.41
2023-04-27T14:23:29.616Z,42.85
2023-04-27T14:25:58.026Z,42.86
2023-04-27T14:28:27.916Z,43.53
2023-04-27T14:30:56.270Z,43.71
2023-04-27T14:33:24.778Z,42.66
2023-04-27T14:35:53.248Z,41.96
2023-04-27T14:38:21.787Z,42.77
2023-04-27T14:40:50.226Z,44.71
2023-04-27T14:43:18.477Z,43.33
2023-04-27T14:45:52.720Z,42.99
2023-04-27T14:48:24.819Z,43.38
2023-04-27T14:50:53.974Z,43.49
2023-04-27T14:53:22.454Z,44.47
2023-04-27T14:55:50.736Z,44.10
2023-04-27T14:58:19.087Z,44.22
2023-04-27T15:00:49.541Z,44.76
2023-04-27T15:03:18.455Z,44.45
2023-04-27T15:05:46.959Z,43.65
2023-04-27T15:08:15.543Z,43.55
2023-04-27T15:10:43.890Z,43.43
2023-04-27T15:13:13.111Z,41.42
2023-04-27T15:15:41.793Z,42.41
2023-04-27T15:18:11.662Z,43.66
2023-04-27T15:20:40.197Z,44.69
2023-04-27T15:23:08.430Z,45.82
2023-04-27T15:25:36.870Z,45.57
2023-04-27T15:28:05.381Z,47.50
2023-04-27T15:30:36.182Z,46.99
2023-04-27T15:33:04.543Z,46.27
2023-04-27T15:35:34.275Z,47.17
2023-04-27T15:38:02.706Z,46.49
2023-04-27T15:40:31.013Z,45.85
2023-04-27T15:42:59.397Z,44.88
2023-04-27T15:45:28.615Z,46.54
2023-04-27T15:47:57.001Z,46.50
2023-04-27T15:50:25.774Z,46.73
2023-04-27T15:52:55.622Z,47.68
2023-04-27T15:55:24.046Z,46.68
2023-04-27T15:57:52.459Z,46.85
2023-04-27T16:00:22.725Z,47.29
2023-04-27T16:02:52.536Z,48.49
2023-04-27T16:05:21.523Z,47.72
2023-04-27T16:07:49.975Z,48.65
2023-04-27T16:10:19.710Z,48.27
2023-04-27T16:12:48.030Z,49.30
2023-04-27T16:15:16.461Z,49.54
2023-04-27T16:17:44.969Z,48.88
2023-04-27T16:20:13.394Z,47.66
2023-04-27T16:22:41.724Z,47.88
2023-04-27T16:25:11.630Z,47.93
2023-04-27T16:27:42.693Z,47.77
2023-04-27T16:30:11.571Z,48.49
2023-04-27T16:32:40.401Z,48.52
2023-04-27T16:35:09.688Z,49.48
2023-04-27T16:37:38.422Z,50.02
2023-04-27T16:40:08.806Z,50.75
2023-04-27T16:42:37.358Z,50.09
2023-04-27T16:45:10.554Z,50.43
2023-04-27T16:47:39.874Z,51.14
2023-04-27T16:50:08.943Z,51.57
2023-04-27T16:52:37.717Z,52.57
2023-04-27T16:55:07.439Z,50.81
2023-04-27T16:57:35.952Z,50.41
2023-04-27T17:00:06.613Z,51.04
2023-04-27T17:02:37.562Z,50.64
2023-04-27T17:05:07.584Z,50.93
2023-04-27T17:07:36.209Z,51.37
2023-04-27T17:10:05.813Z,51.30
2023-04-27T17:12:34.160Z,53.36
2023-04-27T17:15:02.926Z,53.47
2023-04-27T17:17:33.304Z,54.10
2023-04-27T17:20:05.718Z,54.04
2023-04-27T17:22:34.308Z,54.13
2023-04-27T17:25:03.548Z,54.12
2023-04-27T17:27:32.902Z,54.51
2023-04-27T17:30:01.350Z,54.52
2023-04-27T17:32:30.182Z,55.88
2023-04-27T17:34:58.955Z,55.09
2023-04-27T17:37:28.840Z,56.16
2023-04-27T17:39:57.504Z,57.73
2023-04-27T17:42:26.583Z,57.01
2023-04-27T17:44:55.696Z,57.77
2023-04-27T17:47:25.650Z,60.11
2023-04-27T17:49:54.614Z,62.07
2023-04-27T17:52:23.123Z,65.24
2023-04-27T17:54:54.305Z,67.18
2023-04-27T17:57:22.970Z,68.08
2023-04-27T17:59:51.706Z,66.21
2023-04-27T18:02:20.427Z,62.52
2023-04-27T18:04:49.779Z,63.97
2023-04-27T18:07:19.595Z,64.46
2023-04-27T18:09:48.272Z,66.67
2023-04-27T18:12:18.405Z,72.87
2023-04-27T18:14:47.318Z,73.56
2023-04-27T18:17:16.462Z,74.76
2023-04-27T18:19:45.477Z,75.99
2023-04-27T18:22:14.649Z,75.76
2023-04-27T18:24:44.236Z,76.78
2023-04-27T18:27:12.816Z,79.46
2023-04-27T18:29:45.113Z,81.14
2023-04-27T18:32:14.580Z,83.07
2023-04-27T18:34:43.862Z,82.32
2023-04-27T18:37:12.368Z,82.31
2023-04-27T18:39:41.755Z,84.46
2023-04-27T18:42:10.333Z,84.68
2023-04-27T18:44:39.334Z,84.46
2023-04-27T18:47:09.811Z,85.28
2023-04-27T18:49:38.214Z,87.07
2023-04-27T18:52:07.994Z,85.33
2023-04-27T18:54:37.598Z,86.61
2023-04-27T18:57:06.516Z,86.68
2023-04-27T18:59:35.454Z,87.60
2023-04-27T19:02:06.448Z,87.83
2023-04-27T19:04:37.263Z,83.35
2023-04-27T19:07:07.815Z,82.63
2023-04-27T19:09:39.156Z,78.19
2023-04-27T19:12:07.957Z,72.50
2023-04-27T19:14:36.772Z,72.90
2023-04-27T19:17:06.538Z,71.98
2023-04-27T19:19:38.357Z,71.32
2023-04-27T19:22:08.833Z,68.46
2023-04-27T19:24:37.723Z,68.14
2023-04-27T19:27:06.648Z,67.29
2023-04-27T19:29:51.154Z,67.60
2023-04-27T19:32:20.933Z,66.30
2023-04-27T19:34:51.488Z,65.68
2023-04-27T19:37:21.993Z,64.97
2023-04-27T19:39:51.084Z,64.90
2023-04-27T19:42:20.695Z,64.86
2023-04-27T19:44:50.363Z,65.58
2023-04-27T19:47:19.792Z,66.05
2023-04-27T19:49:48.826Z,68.00
2023-04-27T19:52:18.677Z,68.47
2023-04-27T19:54:52.710Z,68.81
2023-04-27T19:57:22.375Z,69.87
2023-04-27T19:59:51.388Z,69.77
2023-04-27T20:02:19.931Z,72.70
2023-04-27T20:04:48.890Z,72.29
2023-04-27T20:07:19.243Z,71.98
2023-04-27T20:09:47.865Z,72.87
2023-04-27T20:12:37.382Z,74.39
2023-04-27T20:15:07.786Z,76.30
2023-04-27T20:17:36.767Z,75.71
2023-04-27T20:20:09.672Z,78.18
2023-04-27T20:22:40.150Z,77.94
2023-04-27T20:25:09.417Z,77.89
2023-04-27T20:27:37.959Z,78.45
2023-04-27T20:30:07.164Z,79.55
2023-04-27T20:32:36.368Z,80.61
2023-04-27T20:35:05.418Z,80.04
2023-04-27T20:37:33.720Z,80.00
2023-04-27T20:40:04.832Z,82.02
2023-04-27T20:42:33.262Z,83.54
2023-04-27T20:45:02.148Z,83.06
2023-04-27T20:47:30.449Z,83.52
2023-04-27T20:49:58.653Z,82.80
2023-04-27T20:52:31.036Z,83.74
2023-04-27T20:55:01.232Z,83.29
2023-04-27T20:57:30.991Z,84.08
2023-04-27T20:59:59.450Z,84.43
2023-04-27T21:02:27.690Z,85.26
2023-04-27T21:04:56.085Z,85.55
2023-04-27T21:07:24.479Z,84.92
2023-04-27T21:09:52.776Z,84.27
2023-04-27T21:12:21.190Z,83.35
2023-04-27T21:14:50.861Z,82.24
2023-04-27T21:17:19.337Z,81.02
2023-04-27T21:19:47.599Z,79.96
2023-04-27T21:22:16.121Z,78.69
2023-04-27T21:24:44.583Z,79.82
2023-04-27T21:27:13.680Z,80.54
2023-04-27T21:29:41.956Z,77.89
2023-04-27T21:32:11.694Z,77.52
2023-04-27T21:34:40.283Z,77.69
2023-04-27T21:37:08.729Z,76.43
2023-04-27T21:39:37.106Z,73.88
2023-04-27T21:42:05.796Z,75.09
2023-04-27T21:44:34.373Z,75.11
2023-04-27T21:47:02.757Z,75.50
2023-04-27T21:49:32.619Z,71.90
2023-04-27T21:52:00.911Z,71.85
2023-04-27T21:54:29.118Z,72.77
2023-04-27T21:56:57.280Z,73.52
2023-04-27T21:59:25.720Z,74.38
2023-04-27T22:01:54.071Z,74.08
2023-04-27T22:04:22.916Z,73.16
2023-04-27T22:06:53.376Z,73.71
2023-04-27T22:09:21.712Z,73.67
2023-04-27T22:11:49.871Z,74.74
2023-04-27T22:14:18.287Z,74.15
2023-04-27T22:16:46.618Z,74.37
2023-04-27T22:19:15.191Z,73.75
2023-04-27T22:21:43.540Z,74.13
2023-04-27T22:24:13.561Z,73.89
2023-04-27T22:26:42.013Z,74.02
2023-04-27T22:29:10.694Z,73.87
2023-04-27T22:31:39.390Z,74.08
2023-04-27T22:34:07.950Z,74.17
2023-04-27T22:36:36.318Z,75.94
2023-04-27T22:39:05.863Z,76.41
2023-04-27T22:41:36.266Z,77.14
2023-04-27T22:44:05.054Z,79.19
2023-04-27T22:46:33.321Z,81.17
2023-04-27T22:49:02.350Z,81.60
2023-04-27T22:51:30.602Z,82.78
2023-04-27T22:53:58.918Z,81.95
2023-04-27T22:56:27.359Z,83.14
2023-04-27T22:58:57.129Z,85.50
2023-04-27T23:01:25.402Z,85.66
2023-04-27T23:03:54.194Z,87.25
2023-04-27T23:06:22.672Z,87.72
2023-04-27T23:08:51.231Z,88.11
2023-04-27T23:11:19.525Z,88.72
2023-04-27T23:13:50.874Z,88.67
2023-04-27T23:16:20.561Z,89.10
2023-04-27T23:18:48.878Z,88.39
2023-04-27T23:21:17.176Z,89.27
2023-04-27T23:23:45.678Z,90.19
2023-04-27T23:26:15.282Z,91.06
2023-04-27T23:28:44.042Z,91.48
2023-04-27T23:31:12.649Z,91.01
2023-04-27T23:33:42.567Z,91.01
2023-04-27T23:36:10.965Z,91.96
2023-04-27T23:38:39.273Z,93.52
2023-04-27T23:41:07.813Z,93.14
2023-04-27T23:43:36.029Z,94.30
2023-04-27T23:46:05.914Z,95.79
2023-04-27T23:48:34.560Z,96.34
2023-04-27T23:51:05.497Z,97.02
2023-04-27T23:53:33.894Z,98.09
2023-04-27T23:56:02.238Z,97.67
2023-04-27T23:58:30.445Z,99.44
